Time;durP1;ratioP1;P1;durP2;ratioP2;P2;SDS_P1;SDS_P2;PMS_P1;PMS_P2;Temp;Humidity;BMP_temperature;BMP_pressure;BME280_temperature;BME280_humidity;BME280_pressure;Samples;Min_cycle;Max_cycle;Signal;HPM_P1;HPM_P2
2022/10/04 00:02:46;;;;;;;8.50;3.60;;;;;;;13.35;67.24;99050.10;224085;1251;140689;-75
2022/10/04 00:07:57;;;;;;;8.80;3.40;;;;;;;13.34;67.32;99051.06;224021;1251;139685;-73
2022/10/04 00:13:05;;;;;;;10.60;4.00;;;;;;;13.34;67.43;99046.77;224755;1236;141424;-70
2022/10/04 00:18:11;;;;;;;7.90;3.30;;;;;;;13.33;67.50;99048.31;224594;1242;141317;-75
2022/10/04 00:23:22;;;;;;;11.70;3.20;;;;;;;13.37;67.48;99052.81;224107;1243;140379;-77
2022/10/04 00:28:25;;;;;;;8.40;3.30;;;;;;;13.41;67.57;99040.54;224758;1236;140584;-72
2022/10/04 00:33:56;;;;;;;11.20;3.70;;;;;;;13.43;67.35;99040.06;224112;1247;139059;-70
2022/10/04 00:39:07;;;;;;;10.90;3.60;;;;;;;13.42;67.36;99036.22;224714;1244;139504;-72
2022/10/04 00:44:23;;;;;;;8.70;3.30;;;;;;;13.35;67.33;99037.27;224071;1246;138912;-70
2022/10/04 00:49:33;;;;;;;8.20;3.20;;;;;;;13.29;67.23;99029.72;224144;1251;138994;-66
2022/10/04 00:54:40;;;;;;;8.90;3.10;;;;;;;13.27;67.29;99029.11;224146;1250;139956;-70
2022/10/04 00:59:48;;;;;;;7.50;3.00;;;;;;;13.28;67.38;99024.98;224671;1241;140497;-68
2022/10/04 01:05:01;;;;;;;10.60;3.60;;;;;;;13.30;67.37;99026.60;224105;1251;138694;-66
2022/10/04 01:10:48;;;;;;;8.90;3.20;;;;;;;13.31;67.46;99025.47;224032;1251;141265;-65
2022/10/04 01:16:13;;;;;;;6.70;3.10;;;;;;;13.25;67.36;99024.95;224617;1252;139261;-68
2022/10/04 01:21:22;;;;;;;6.50;2.70;;;;;;;13.21;67.26;99017.09;224015;1256;139280;-69
2022/10/04 01:26:37;;;;;;;6.70;2.40;;;;;;;13.20;67.25;99026.00;224058;1251;209578;-69
2022/10/04 01:31:51;;;;;;;9.00;2.90;;;;;;;13.20;67.20;99025.10;224113;1245;139600;-70
2022/10/04 01:36:59;;;;;;;8.00;3.10;;;;;;;13.20;67.49;99024.41;224026;1254;140014;-69
2022/10/04 01:42:19;;;;;;;10.20;3.50;;;;;;;13.21;67.50;99028.81;224708;1237;139553;-68
2022/10/04 01:47:31;;;;;;;10.30;3.60;;;;;;;13.21;67.82;99027.38;224110;1251;141348;-70
2022/10/04 01:52:41;;;;;;;7.80;3.40;;;;;;;13.18;67.49;99028.32;224154;1251;139850;-78
2022/10/04 01:57:58;;;;;;;9.00;4.20;;;;;;;13.19;67.61;99028.27;224818;1244;139262;-71
2022/10/04 02:03:27;;;;;;;9.70;4.30;;;;;;;13.20;67.69;99032.25;224759;1244;139332;-71
2022/10/04 02:08:34;;;;;;;11.10;3.90;;;;;;;13.19;67.85;99025.21;224122;1250;138859;-71
2022/10/04 02:13:39;;;;;;;8.40;3.70;;;;;;;13.22;67.76;99023.77;224726;1244;139737;-72
2022/10/04 02:18:44;;;;;;;9.20;4.10;;;;;;;13.28;68.02;99016.44;224089;1254;139257;-70
2022/10/04 02:23:49;;;;;;;10.90;4.00;;;;;;;13.33;67.81;99016.23;224083;1251;139806;-67
2022/10/04 02:28:51;;;;;;;11.10;3.80;;;;;;;13.38;67.75;99013.50;224222;1251;139554;-69
2022/10/04 02:33:57;;;;;;;9.40;3.60;;;;;;;13.41;67.79;99013.61;224836;1237;139463;-69
2022/10/04 02:39:23;;;;;;;9.40;3.20;;;;;;;13.41;67.61;99011.70;224766;1236;139332;-66
2022/10/04 02:44:26;;;;;;;;;;;;;;;13.35;67.41;99017.98;224840;1244;139701;-67
2022/10/04 02:49:33;;;;;;;6.30;3.10;;;;;;;13.29;67.53;99014.20;224755;1238;125518;-66
2022/10/04 02:54:40;;;;;;;9.30;3.20;;;;;;;13.20;67.26;99018.02;224870;1236;139470;-68
2022/10/04 02:59:43;;;;;;;8.60;3.20;;;;;;;13.20;67.53;99012.48;224067;1247;141937;-69
2022/10/04 03:04:48;;;;;;;7.80;2.80;;;;;;;13.24;67.62;99005.42;224785;1238;139529;-67
2022/10/04 03:09:52;;;;;;;46.80;28.10;;;;;;;13.23;67.45;99004.45;223987;1244;139445;-69
2022/10/04 03:14:55;;;;;;;7.10;3.00;;;;;;;13.15;67.12;99006.31;223996;1254;139743;-71
2022/10/04 03:19:59;;;;;;;8.80;2.90;;;;;;;13.10;67.27;99011.30;224087;1244;139606;-69
2022/10/04 03:25:02;;;;;;;6.60;3.10;;;;;;;13.04;66.99;99012.27;224775;1240;139219;-68
2022/10/04 03:30:06;;;;;;;8.40;2.70;;;;;;;12.96;67.24;99003.71;224080;1251;139298;-69
2022/10/04 03:35:27;;;;;;;7.40;2.70;;;;;;;12.95;67.13;99004.66;224223;1245;140382;-72
2022/10/04 03:40:32;;;;;;;9.90;3.10;;;;;;;12.95;67.17;99021.75;224841;1244;140170;-67
2022/10/04 03:45:35;;;;;;;11.50;3.10;;;;;;;12.91;67.08;99039.37;224079;1251;138862;-70
2022/10/04 03:50:48;;;;;;;30.10;18.80;;;;;;;12.89;67.44;99039.16;224114;1251;139054;-71
2022/10/04 03:55:51;;;;;;;8.50;2.90;;;;;;;12.93;67.57;99035.67;224797;1244;139313;-68
2022/10/04 04:00:59;;;;;;;10.10;3.20;;;;;;;12.92;67.26;99029.16;224835;1237;139059;-70
2022/10/04 04:06:10;;;;;;;8.50;3.00;;;;;;;12.92;67.20;99040.33;224025;1245;140360;-67
2022/10/04 04:11:23;;;;;;;10.50;3.30;;;;;;;12.98;67.38;99043.80;224247;1247;139474;-69
2022/10/04 04:16:27;;;;;;;9.30;3.20;;;;;;;13.02;67.33;99047.09;224040;1251;140573;-68
2022/10/04 04:21:31;;;;;;;9.10;3.00;;;;;;;13.03;67.32;99051.51;224100;1253;139649;-69
2022/10/04 04:26:42;;;;;;;6.20;2.60;;;;;;;13.04;67.08;99058.88;224089;1244;139131;-71
2022/10/04 04:32:17;;;;;;;8.90;2.80;;;;;;;13.05;67.26;99064.38;224072;1251;139147;-69
2022/10/04 04:37:20;;;;;;;8.30;2.80;;;;;;;13.02;67.13;99062.95;224011;1245;138974;-70
2022/10/04 04:42:33;;;;;;;7.00;2.50;;;;;;;13.08;66.96;99060.97;224087;1246;139727;-70
2022/10/04 04:47:43;;;;;;;9.50;2.70;;;;;;;13.11;67.12;99067.83;224729;1242;139849;-68
2022/10/04 04:52:49;;;;;;;7.90;2.60;;;;;;;13.11;66.94;99066.63;223928;1248;141045;-67
2022/10/04 04:57:57;;;;;;;9.40;2.90;;;;;;;13.09;66.88;99066.70;221829;1244;141264;-68
2022/10/04 05:03:06;;;;;;;7.90;2.40;;;;;;;13.05;66.78;99068.45;221732;1244;140561;-69
2022/10/04 05:08:19;;;;;;;8.50;2.70;;;;;;;12.98;66.52;99075.15;221679;1246;140506;-66
2022/10/04 05:13:43;;;;;;;7.90;2.30;;;;;;;12.90;66.63;99082.83;221787;1243;140282;-67
2022/10/04 05:18:47;;;;;;;6.10;2.40;;;;;;;12.89;66.74;99085.56;221601;1244;140393;-65
2022/10/04 05:23:52;;;;;;;9.00;2.80;;;;;;;12.92;66.92;99094.65;221625;1246;140549;-70
2022/10/04 05:29:01;;;;;;;10.00;3.00;;;;;;;12.92;67.14;99103.20;221914;1243;141029;-70
2022/10/04 05:34:22;;;;;;;7.60;2.80;;;;;;;12.94;67.35;99108.41;221801;1244;139351;-72
2022/10/04 05:39:30;;;;;;;13.40;3.30;;;;;;;12.93;67.41;99115.42;221840;1244;140165;-71
2022/10/04 05:44:44;;;;;;;8.50;3.20;;;;;;;12.94;67.23;99119.65;221929;1244;140242;-66
2022/10/04 05:49:52;;;;;;;9.80;3.20;;;;;;;12.92;67.23;99126.70;221669;1246;139689;-65
2022/10/04 05:55:11;;;;;;;9.70;2.90;;;;;;;12.95;67.18;99136.27;221806;1244;140576;-69
2022/10/04 06:00:20;;;;;;;8.10;2.70;;;;;;;12.98;67.25;99149.80;221833;1238;140392;-68
2022/10/04 06:05:47;;;;;;;11.00;3.50;;;;;;;13.02;67.47;99157.13;221858;1246;140564;-67
2022/10/04 06:10:56;;;;;;;9.50;3.20;;;;;;;13.06;67.25;99162.28;221965;1244;140725;-67
2022/10/04 06:16:29;;;;;;;11.40;3.30;;;;;;;13.05;67.24;99166.07;221807;1246;140547;-69
2022/10/04 06:21:55;;;;;;;11.30;3.40;;;;;;;13.05;67.15;99167.84;221794;1237;139636;-68
2022/10/04 06:27:16;;;;;;;11.60;4.00;;;;;;;13.03;66.88;99174.72;221723;1244;140157;-72
2022/10/04 06:32:52;;;;;;;11.60;2.80;;;;;;;13.07;67.08;99180.90;221806;1246;141756;-71
2022/10/04 06:38:14;;;;;;;9.10;3.10;;;;;;;13.15;66.72;99183.36;221598;1243;139835;-71
2022/10/04 06:43:21;;;;;;;7.90;3.00;;;;;;;13.21;66.88;99180.59;221795;1245;140373;-71
2022/10/04 06:48:45;;;;;;;14.90;3.40;;;;;;;13.26;66.82;99181.35;221878;1243;139481;-70
2022/10/04 06:54:19;;;;;;;11.60;3.00;;;;;;;13.25;66.73;99191.73;222006;1244;139667;-64
2022/10/04 06:59:51;;;;;;;15.00;3.40;;;;;;;13.24;66.71;99204.81;222015;1244;140937;-67
2022/10/04 07:05:07;;;;;;;9.60;3.40;;;;;;;13.26;66.66;99215.53;221579;1244;139969;-67
2022/10/04 07:10:31;;;;;;;10.00;3.20;;;;;;;13.32;66.62;99222.95;221889;1244;140713;-69
2022/10/04 07:15:49;;;;;;;10.80;3.50;;;;;;;13.34;66.54;99229.58;221886;1245;140769;-68
2022/10/04 07:21:03;;;;;;;10.70;3.00;;;;;;;13.39;66.48;99234.61;221891;1246;140230;-67
2022/10/04 07:26:29;;;;;;;8.20;3.40;;;;;;;13.39;66.32;99246.35;221965;1247;140291;-68
2022/10/04 07:31:35;;;;;;;11.90;3.80;;;;;;;13.43;66.31;99249.48;221705;1244;142187;-67
2022/10/04 07:36:45;;;;;;;7.30;2.70;;;;;;;13.45;66.09;99252.15;221823;1247;140584;-66
2022/10/04 07:42:13;;;;;;;9.70;3.40;;;;;;;13.45;66.03;99256.98;221955;1243;140361;-67
2022/10/04 07:47:20;;;;;;;10.30;3.30;;;;;;;13.54;66.12;99259.59;221948;1237;140967;-70
2022/10/04 07:53:08;;;;;;;10.00;3.20;;;;;;;13.62;66.06;99265.95;221639;1244;139912;-66
2022/10/04 07:58:27;;;;;;;;;;;;;;;13.65;66.05;99276.29;221411;1245;140712;-69
2022/10/04 08:04:03;;;;;;;8.60;2.90;;;;;;;13.66;65.88;99281.58;222006;1244;125137;-67
2022/10/04 08:09:33;;;;;;;11.50;3.10;;;;;;;13.60;65.38;99280.19;221690;1243;139933;-66
2022/10/04 08:14:37;;;;;;;11.20;3.20;;;;;;;13.57;65.35;99284.85;221840;1247;140404;-68
2022/10/04 08:19:51;;;;;;;12.70;3.20;;;;;;;13.57;65.44;99293.60;221894;1247;141571;-67
2022/10/04 08:25:13;;;;;;;16.60;3.40;;;;;;;13.62;65.40;99296.47;222014;1247;140847;-65
2022/10/04 08:30:17;;;;;;;17.10;5.30;;;;;;;13.67;65.35;99301.07;221895;1244;141645;-64
2022/10/04 08:35:32;;;;;;;11.80;5.30;;;;;;;13.76;65.47;99304.88;221846;1245;140804;-65
2022/10/04 08:40:48;;;;;;;11.30;3.40;;;;;;;13.82;65.28;99310.56;221752;1244;138894;-67
2022/10/04 08:45:55;;;;;;;10.00;3.10;;;;;;;13.84;65.15;99311.46;221853;1244;141089;-67
2022/10/04 08:51:20;;;;;;;9.20;3.40;;;;;;;13.85;64.82;99318.38;221745;1244;142602;-65
2022/10/04 08:56:55;;;;;;;14.60;2.90;;;;;;;13.81;64.72;99320.05;221884;1245;140332;-65
2022/10/04 09:02:45;;;;;;;11.80;3.00;;;;;;;13.81;64.61;99323.09;221763;1244;140501;-66
2022/10/04 09:08:13;;;;;;;7.20;2.60;;;;;;;13.83;64.55;99327.43;220675;1250;139455;-67
2022/10/04 09:13:35;;;;;;;12.00;2.80;;;;;;;13.88;64.46;99332.74;221645;1240;141157;-66
2022/10/04 09:19:07;;;;;;;11.40;2.90;;;;;;;13.94;64.47;99337.66;221912;1243;140739;-66
2022/10/04 09:24:38;;;;;;;8.00;2.50;;;;;;;13.95;64.30;99346.16;221711;1245;139213;-65
2022/10/04 09:30:15;;;;;;;7.60;2.80;;;;;;;13.95;64.15;99352.23;221780;1247;140152;-66
2022/10/04 09:35:28;;;;;;;8.30;3.10;;;;;;;13.92;64.19;99356.89;221949;1243;141215;-66
2022/10/04 09:40:53;;;;;;;7.70;3.20;;;;;;;13.94;64.17;99358.55;221697;1246;141550;-66
2022/10/04 09:46:15;;;;;;;10.10;3.40;;;;;;;13.98;64.10;99358.80;221812;1245;140056;-65
2022/10/04 09:52:00;;;;;;;12.00;3.30;;;;;;;14.07;64.27;99364.77;221727;1243;141024;-64
2022/10/04 09:57:28;;;;;;;12.40;3.20;;;;;;;14.24;64.06;99375.69;221747;1247;141108;-66
2022/10/04 10:02:49;;;;;;;7.30;2.50;;;;;;;14.28;63.77;99376.85;221851;1243;140588;-66
2022/10/04 10:08:16;;;;;;;9.30;3.10;;;;;;;14.27;63.51;99382.60;221793;1245;141135;-66
2022/10/04 10:14:01;;;;;;;11.30;3.00;;;;;;;14.21;63.33;99385.34;221708;1248;139265;-64
2022/10/04 10:19:44;;;;;;;9.70;2.80;;;;;;;14.22;63.22;99385.80;221837;1248;140177;-64
2022/10/04 10:25:06;;;;;;;8.60;2.50;;;;;;;14.26;63.25;99385.38;221486;1249;140463;-64
2022/10/04 10:30:13;;;;;;;34.20;18.50;;;;;;;14.31;63.13;99394.80;221997;1249;141337;-65
2022/10/04 10:35:42;;;;;;;8.90;3.20;;;;;;;14.35;63.19;99394.34;221889;1249;141378;-66
2022/10/04 10:40:48;;;;;;;8.20;2.50;;;;;;;14.41;62.96;99397.30;221751;1245;141320;-66
2022/10/04 10:45:51;;;;;;;;;;;;;;;14.53;62.83;99401.50;221800;1250;141976;-64
2022/10/04 10:51:34;;;;;;;9.10;2.90;;;;;;;14.68;62.80;99396.46;221672;1245;127598;-64
2022/10/04 10:56:58;;;;;;;8.90;2.90;;;;;;;14.88;62.67;99403.75;221612;1249;142296;-64
2022/10/04 11:02:58;;;;;;;9.20;3.10;;;;;;;15.05;62.57;99401.55;221818;1245;140550;-64
2022/10/04 11:08:19;;;;;;;7.00;1.90;;;;;;;15.44;63.32;99400.38;221059;1246;141493;-64
2022/10/04 11:13:46;;;;;;;5.90;2.10;;;;;;;15.55;61.81;99398.85;221610;1247;140155;-65
2022/10/04 11:19:20;;;;;;;4.70;1.70;;;;;;;15.59;61.04;99400.48;221762;1250;141907;-64
2022/10/04 11:24:46;;;;;;;5.80;1.70;;;;;;;15.55;60.44;99403.52;221836;1243;140954;-66
2022/10/04 11:30:23;;;;;;;9.50;3.40;;;;;;;15.48;60.18;99405.98;221944;1244;140610;-63
2022/10/04 11:35:33;;;;;;;4.90;2.00;;;;;;;15.47;59.58;99407.67;221996;1248;141032;-64
2022/10/04 11:40:46;;;;;;;4.00;1.30;;;;;;;15.49;59.43;99411.70;221874;1248;141234;-66
2022/10/04 11:46:07;;;;;;;6.20;1.80;;;;;;;15.57;59.36;99411.96;221778;1248;140229;-65
2022/10/04 11:51:35;;;;;;;6.30;2.20;;;;;;;15.79;59.10;99412.23;221753;1250;231641;-64
2022/10/04 11:56:44;;;;;;;5.60;1.50;;;;;;;15.88;58.67;99413.54;221805;1249;141578;-65
2022/10/04 12:02:17;;;;;;;5.40;2.00;;;;;;;15.81;57.85;99416.02;221778;1247;140140;-64
2022/10/04 12:07:33;;;;;;;50.20;30.10;;;;;;;15.68;57.69;99417.18;221762;1248;140610;-64
2022/10/04 12:12:36;;;;;;;;;;;;;;;15.58;57.64;99419.00;221873;1245;141028;-66
2022/10/04 12:18:04;;;;;;;6.30;2.00;;;;;;;15.50;57.65;99425.34;222074;1244;127172;-65
2022/10/04 12:23:28;;;;;;;6.30;2.00;;;;;;;15.52;57.71;99426.64;221867;1246;140904;-64
2022/10/04 12:29:08;;;;;;;5.70;2.10;;;;;;;15.68;58.07;99425.24;221857;1243;139905;-65
2022/10/04 12:34:26;;;;;;;4.60;1.80;;;;;;;15.76;57.21;99433.05;221832;1249;141568;-65
2022/10/04 12:39:56;;;;;;;6.10;1.70;;;;;;;15.72;57.06;99437.32;221861;1248;139818;-64
2022/10/04 12:45:06;;;;;;;6.20;1.60;;;;;;;15.67;56.96;99439.87;221911;1250;140328;-65
2022/10/04 12:50:42;;;;;;;6.30;1.70;;;;;;;15.66;57.06;99443.85;221848;1246;143018;-67
2022/10/04 12:56:05;;;;;;;6.00;2.00;;;;;;;15.69;57.12;99446.79;221877;1246;140327;-66
2022/10/04 13:01:35;;;;;;;52.40;35.40;;;;;;;15.75;57.11;99449.91;221967;1249;140650;-65
2022/10/04 13:06:49;;;;;;;6.30;2.10;;;;;;;15.71;57.13;99457.02;221966;1249;140380;-64
2022/10/04 13:12:23;;;;;;;5.90;1.80;;;;;;;15.86;57.22;99463.21;222026;1250;139999;-64
2022/10/04 13:17:53;;;;;;;5.10;1.60;;;;;;;16.01;56.43;99467.98;222026;1239;139698;-64
2022/10/04 13:23:17;;;;;;;8.90;2.40;;;;;;;15.96;55.84;99472.12;221768;1247;139917;-66
2022/10/04 13:28:30;;;;;;;9.30;1.80;;;;;;;15.94;55.70;99474.61;221787;1250;140892;-64
2022/10/04 13:34:06;;;;;;;4.00;2.00;;;;;;;15.92;55.62;99470.80;221855;1250;140317;-64
2022/10/04 13:39:13;;;;;;;4.00;1.40;;;;;;;15.98;55.68;99467.53;221746;1249;141648;-64
2022/10/04 13:44:26;;;;;;;5.70;1.90;;;;;;;16.06;55.38;99468.14;221878;1243;138824;-64
2022/10/04 13:50:01;;;;;;;3.20;1.20;;;;;;;16.07;55.14;99469.48;221814;1246;139947;-64
2022/10/04 14:01:06;;;;;;;8.40;3.50;;;;;;;16.06;55.29;99482.39;221791;1247;141355;-66
2022/10/04 14:06:37;;;;;;;7.30;2.10;;;;;;;16.08;55.02;99488.02;221859;1248;140460;-65
2022/10/04 14:12:04;;;;;;;6.10;1.80;;;;;;;16.07;54.91;99491.13;221832;1248;140490;-65
2022/10/04 14:17:41;;;;;;;8.80;1.60;;;;;;;16.08;54.85;99497.65;221886;1244;139770;-65
2022/10/04 14:23:29;;;;;;;8.40;3.50;;;;;;;16.09;54.98;99492.60;221929;1248;140927;-65
2022/10/04 14:28:59;;;;;;;6.60;2.20;;;;;;;16.13;54.88;99491.61;221792;1246;139565;-65
2022/10/04 14:34:28;;;;;;;6.00;1.60;;;;;;;16.15;54.65;99489.77;221889;1244;141033;-65
2022/10/04 14:39:48;;;;;;;8.40;1.80;;;;;;;16.19;54.59;99495.77;221664;1245;139998;-64
2022/10/04 14:45:11;;;;;;;11.30;1.80;;;;;;;16.20;54.35;99489.94;221722;1247;138832;-64
2022/10/04 14:50:40;;;;;;;8.60;2.40;;;;;;;16.24;54.33;99489.98;221713;1247;140967;-65
2022/10/04 14:56:16;;;;;;;9.10;2.20;;;;;;;16.28;54.25;99492.39;221838;1243;141025;-65
2022/10/04 15:01:28;;;;;;;5.70;2.40;;;;;;;16.29;54.18;99497.62;221682;1244;139755;-64
2022/10/04 15:06:49;;;;;;;6.50;2.20;;;;;;;16.24;54.02;99498.19;221892;1246;140199;-63
2022/10/04 15:11:57;;;;;;;6.80;2.10;;;;;;;16.19;54.03;99507.92;222039;1250;140246;-63
2022/10/04 15:17:35;;;;;;;5.60;1.90;;;;;;;16.18;54.18;99515.34;221829;1246;141679;-63
2022/10/04 15:22:52;;;;;;;6.20;2.60;;;;;;;16.10;53.82;99524.23;221835;1244;140258;-64
2022/10/04 15:27:58;;;;;;;7.10;2.70;;;;;;;16.05;53.64;99525.15;221885;1243;140996;-63
2022/10/04 15:33:21;;;;;;;4.90;2.20;;;;;;;15.98;53.61;99530.81;221838;1244;141118;-63
2022/10/04 15:38:46;;;;;;;10.80;2.90;;;;;;;15.92;53.66;99537.80;222015;1244;140345;-63
2022/10/04 15:44:12;;;;;;;4.00;2.20;;;;;;;15.84;53.55;99539.41;221816;1244;139631;-63
2022/10/04 15:49:27;;;;;;;;;;;;;;;15.78;53.69;99544.39;221895;1246;140412;-64
2022/10/04 15:54:42;;;;;;;7.10;2.80;;;;;;;15.70;53.92;99550.48;222026;1247;125169;-64
2022/10/04 16:00:01;;;;;;;7.00;2.80;;;;;;;15.62;53.92;99551.45;222019;1246;139447;-64
2022/10/04 16:05:13;;;;;;;36.70;20.20;;;;;;;15.56;54.04;99552.56;221892;1244;141268;-64
2022/10/04 16:10:51;;;;;;;10.10;4.00;;;;;;;15.50;53.96;99556.30;221757;1243;139979;-63
2022/10/04 16:16:14;;;;;;;;;;;;;;;15.42;53.99;99556.68;221838;1243;139864;-64
2022/10/04 16:21:28;;;;;;;8.50;3.00;;;;;;;15.35;54.11;99564.49;221900;1243;125573;-63
2022/10/04 16:26:32;;;;;;;11.20;3.50;;;;;;;15.31;54.10;99568.02;221825;1244;140190;-63
2022/10/04 16:31:54;;;;;;;10.70;3.20;;;;;;;15.24;54.30;99570.14;221848;1243;141399;-65
2022/10/04 16:37:39;;;;;;;12.70;3.60;;;;;;;15.15;55.08;99569.77;221718;1243;139908;-65
2022/10/04 16:43:03;;;;;;;14.60;4.10;;;;;;;14.98;55.01;99581.66;221236;1250;139982;-64
2022/10/04 16:48:10;;;;;;;9.40;3.80;;;;;;;14.87;55.20;99579.59;221875;1243;139881;-64
2022/10/04 16:53:20;;;;;;;6.60;2.80;;;;;;;14.87;55.44;99588.19;221781;1243;139255;-64
2022/10/04 16:58:29;;;;;;;10.40;3.00;;;;;;;14.89;55.43;99593.17;221762;1244;140162;-64
2022/10/04 17:03:36;;;;;;;12.90;3.60;;;;;;;14.89;55.47;99596.41;221763;1243;139624;-64
2022/10/04 17:09:20;;;;;;;11.80;4.50;;;;;;;14.79;55.63;99600.55;221858;1243;139165;-64
2022/10/04 17:14:38;;;;;;;12.40;4.00;;;;;;;14.59;55.90;99606.59;222080;1251;142386;-64
2022/10/04 17:19:49;;;;;;;14.90;3.80;;;;;;;14.50;56.27;99612.41;224670;1244;139526;-64
2022/10/04 17:25:06;;;;;;;12.10;4.40;;;;;;;14.52;56.65;99619.75;224001;1241;141242;-64
2022/10/04 17:30:25;;;;;;;15.80;4.60;;;;;;;14.46;56.56;99623.16;224862;1251;139798;-64
2022/10/04 17:35:59;;;;;;;11.90;4.30;;;;;;;14.31;56.80;99629.94;224013;1252;140052;-63
2022/10/04 17:41:26;;;;;;;14.30;5.00;;;;;;;14.17;57.00;99635.15;223983;1254;139838;-64
2022/10/04 17:46:45;;;;;;;14.80;4.40;;;;;;;14.05;57.34;99640.05;223854;1245;140381;-64
2022/10/04 17:57:34;;;;;;;9.40;3.80;;;;;;;14.01;57.72;99645.65;224429;1239;141741;-64
2022/10/04 18:02:58;;;;;;;9.10;4.00;;;;;;;14.04;57.77;99646.73;221719;1241;138826;-64
2022/10/04 18:08:17;;;;;;;7.10;3.70;;;;;;;14.11;58.08;99652.67;221598;1245;139174;-64
2022/10/04 18:13:43;;;;;;;17.60;9.60;;;;;;;14.31;58.78;99656.88;221832;1243;140595;-66
2022/10/04 18:18:47;;;;;;;11.50;4.50;;;;;;;14.49;58.33;99674.77;221891;1243;139779;-65
2022/10/04 18:24:12;;;;;;;10.90;4.50;;;;;;;14.51;57.76;99683.55;221942;1243;141271;-64
2022/10/04 18:29:36;;;;;;;13.90;4.50;;;;;;;14.47;57.67;99688.27;221915;1243;140531;-64
2022/10/04 18:34:53;;;;;;;14.20;5.10;;;;;;;14.40;57.67;99689.81;221635;1243;142078;-63
2022/10/04 18:40:41;;;;;;;9.30;4.60;;;;;;;14.30;57.64;99684.92;221838;1237;139786;-64
2022/10/04 18:46:19;;;;;;;11.60;4.20;;;;;;;14.18;57.70;99693.45;221314;1238;139070;-64
2022/10/04 18:52:06;;;;;;;15.90;5.40;;;;;;;14.07;57.83;99692.89;221823;1243;138994;-63
2022/10/04 18:57:13;;;;;;;9.10;4.40;;;;;;;13.98;57.96;99691.52;222458;1237;140976;-65
2022/10/04 19:02:34;;;;;;;16.50;5.20;;;;;;;13.89;58.07;99698.00;221849;1237;139795;-64
2022/10/04 19:07:59;;;;;;;17.80;5.90;;;;;;;13.79;58.28;99704.55;221634;1243;140450;-64
2022/10/04 19:13:46;;;;;;;13.60;5.30;;;;;;;13.76;58.40;99712.39;221786;1243;140527;-63
2022/10/04 19:19:06;;;;;;;14.50;5.10;;;;;;;13.70;58.51;99714.20;221570;1243;141084;-64
2022/10/04 19:24:33;;;;;;;13.10;5.30;;;;;;;13.57;58.52;99721.86;221826;1243;140162;-65
2022/10/04 19:29:55;;;;;;;15.30;5.30;;;;;;;13.43;58.90;99724.64;221958;1243;139974;-64
2022/10/04 19:35:15;;;;;;;10.40;5.40;;;;;;;13.32;58.94;99731.61;221863;1243;139292;-65
2022/10/04 19:40:36;;;;;;;14.60;5.70;;;;;;;13.23;59.25;99736.59;221943;1243;139747;-64
2022/10/04 19:45:45;;;;;;;10.40;5.70;;;;;;;13.14;59.39;99738.55;221882;1243;140791;-65
2022/10/04 19:51:15;;;;;;;17.40;6.00;;;;;;;13.05;59.54;99733.75;221944;1243;139461;-65
2022/10/04 19:56:27;;;;;;;19.40;6.40;;;;;;;12.98;59.51;99747.35;221712;1246;140148;-65
2022/10/04 20:01:34;;;;;;;20.40;6.80;;;;;;;12.96;59.76;99755.65;221879;1243;139861;-65
2022/10/04 20:06:48;;;;;;;18.90;7.20;;;;;;;12.94;60.02;99763.13;221728;1243;140066;-65
2022/10/04 20:11:53;;;;;;;18.30;7.00;;;;;;;12.89;60.02;99767.84;222062;1244;139191;-65
2022/10/04 20:16:56;;;;;;;16.00;7.40;;;;;;;12.85;60.46;99769.32;222093;1243;140895;-65
2022/10/04 20:22:12;;;;;;;13.80;7.70;;;;;;;12.81;60.20;99775.27;222238;1244;138881;-65
2022/10/04 20:27:19;;;;;;;18.90;8.20;;;;;;;12.77;60.18;99780.66;222117;1243;139426;-66
2022/10/04 20:32:32;;;;;;;16.50;8.30;;;;;;;12.71;60.40;99784.94;222162;1243;139371;-66
2022/10/04 20:37:44;;;;;;;16.40;9.00;;;;;;;12.67;60.65;99793.36;222043;1243;139854;-64
2022/10/04 20:43:13;;;;;;;24.20;10.10;;;;;;;12.64;60.66;99792.85;221798;1246;139919;-64
2022/10/04 20:48:22;;;;;;;21.60;12.20;;;;;;;12.61;60.38;99800.48;221846;1244;139829;-64
2022/10/04 20:53:31;;;;;;;21.30;11.20;;;;;;;12.60;60.83;99804.83;221956;1244;139369;-66
2022/10/04 20:58:35;;;;;;;20.20;11.80;;;;;;;12.59;60.89;99796.49;221776;1246;140722;-64
2022/10/04 21:03:40;;;;;;;27.20;12.50;;;;;;;12.56;60.87;99799.73;221914;1242;140193;-63
2022/10/04 21:08:46;;;;;;;24.90;13.20;;;;;;;12.55;60.93;99805.64;221902;1237;143197;-65
2022/10/04 21:13:56;;;;;;;26.10;13.00;;;;;;;12.61;61.06;99811.54;221641;1244;140602;-64
2022/10/04 21:19:32;;;;;;;25.80;14.90;;;;;;;12.69;61.16;99812.14;221609;1247;139271;-65
2022/10/04 21:24:42;;;;;;;27.20;14.60;;;;;;;12.70;61.03;99813.33;221755;1245;140318;-66
2022/10/04 21:29:46;;;;;;;28.00;14.20;;;;;;;12.70;61.23;99819.38;221808;1243;140536;-66
2022/10/04 21:34:50;;;;;;;28.00;14.10;;;;;;;12.67;60.96;99820.61;221780;1230;140179;-64
2022/10/04 21:39:57;;;;;;;32.70;13.40;;;;;;;12.63;61.06;99822.45;221681;1237;141300;-65
2022/10/04 21:45:03;;;;;;;24.40;14.20;;;;;;;12.58;61.14;99834.17;221878;1243;140241;-65
2022/10/04 21:50:07;;;;;;;24.50;13.70;;;;;;;12.50;61.34;99840.79;222634;1244;140467;-67
2022/10/04 21:55:10;;;;;;;26.20;14.30;;;;;;;12.40;61.29;99837.29;224017;1254;140560;-66
2022/10/04 22:00:13;;;;;;;28.70;14.00;;;;;;;12.31;61.31;99843.17;224120;1251;139366;-69
2022/10/04 22:05:16;;;;;;;22.80;14.90;;;;;;;12.21;61.36;99849.75;223972;1251;140501;-67
2022/10/04 22:10:21;;;;;;;30.50;14.30;;;;;;;12.23;61.48;99844.85;224134;1244;140855;-68
2022/10/04 22:15:25;;;;;;;29.60;14.90;;;;;;;12.30;61.60;99847.46;224032;1251;140261;-68
2022/10/04 22:20:28;;;;;;;30.80;15.60;;;;;;;12.34;61.62;99847.60;224733;1244;140005;-70
2022/10/04 22:25:31;;;;;;;30.00;16.20;;;;;;;12.37;61.60;99846.02;224039;1245;140032;-69
2022/10/04 22:30:35;;;;;;;33.90;15.60;;;;;;;12.37;61.63;99844.22;224044;1244;141750;-65
2022/10/04 22:35:39;;;;;;;32.60;15.50;;;;;;;12.34;61.38;99845.30;224234;1251;139657;-67
2022/10/04 22:40:42;;;;;;;31.00;15.00;;;;;;;12.29;61.53;99848.20;223999;1243;139478;-69
2022/10/04 22:45:45;;;;;;;27.20;15.80;;;;;;;12.23;61.45;99840.59;224008;1245;140920;-68
2022/10/04 22:50:48;;;;;;;28.20;16.00;;;;;;;12.15;61.37;99833.89;224117;1251;139244;-66
2022/10/04 22:55:54;;;;;;;26.00;14.80;;;;;;;12.04;61.38;99835.41;224042;1251;138954;-67
2022/10/04 23:00:58;;;;;;;29.90;15.50;;;;;;;11.94;61.38;99826.73;224043;1251;140484;-68
2022/10/04 23:06:02;;;;;;;32.90;16.40;;;;;;;11.90;61.66;99818.58;224802;1244;141090;-68
2022/10/04 23:11:05;;;;;;;32.70;15.30;;;;;;;11.87;61.59;99811.80;223974;1250;140239;-66
2022/10/04 23:16:15;;;;;;;29.60;16.80;;;;;;;11.78;61.78;99807.11;223971;1250;140281;-69
2022/10/04 23:21:22;;;;;;;29.60;15.50;;;;;;;11.70;61.85;99816.62;224057;1251;140695;-68
2022/10/04 23:26:33;;;;;;;27.60;16.10;;;;;;;11.66;62.18;99825.39;224116;1251;139190;-68
2022/10/04 23:31:37;;;;;;;28.30;15.70;;;;;;;11.63;62.14;99832.98;224086;1251;140055;-66
2022/10/04 23:36:41;;;;;;;29.40;16.30;;;;;;;11.59;62.38;99844.05;224618;1244;139552;-68
2022/10/04 23:41:44;;;;;;;28.80;16.20;;;;;;;11.53;62.56;99841.83;224721;1244;139641;-69
2022/10/04 23:46:46;;;;;;;29.70;16.00;;;;;;;11.50;62.51;99845.23;223953;1254;139957;-66
2022/10/04 23:51:58;;;;;;;25.30;15.40;;;;;;;11.52;62.60;99846.54;224021;1251;140724;-66
2022/10/04 23:57:01;;;;;;;28.50;15.10;;;;;;;11.53;62.40;99848.44;224676;1244;139803;-66
